APL Indonesia — V2EC7 — position and weather

sailwx.info

Track history (hours):
 
Tides and Currents Weather Stations Pressure Air Temp Water Temp Dewpoint Dewpoint Depression Visibility Wind Speed Wind Dir Waves Ship Positions

APL Indonesia

Last reported at 2015-May-29 03:08 UTC. Time now 2015-May-29 10:23 UTC.
Position N 29°37' E 122°32'.

Length 261 m; draft 11.4 m.

Type: Ship (hazmat cat D). MMSI: 305386000.

Date/timePositionNaut miles runAvg speedWind from/ knotsBaromVisibWave heightAir tempDewpointWater temp
2015-May-29 03:08N 29°37' E 122°32'813.9
2015-May-29 02:34N 29°42' E 122°25'1110.7
2015-May-29 01:33N 29°48' E 122°14'1212.2
2015-May-29 00:33N 29°55' E 122°03'1111.3
2015-May-28 23:33N 29°57' E 121°50'0 0.3
2015-May-28 22:05N 29°57' E 121°50'0 0.0
2015-May-28 21:32N 29°57' E 121°50'0 0.0
2015-May-28 20:29N 29°57' E 121°50'0 0.0
2015-May-28 19:32N 29°57' E 121°50'0 0.0
2015-May-28 18:17N 29°57' E 121°50'0 0.0
2015-May-28 17:23N 29°57' E 121°50'0 0.0
2015-May-28 16:29N 29°57' E 121°50'1 1.6
2015-May-28 15:33N 29°57' E 121°52'9 8.9
2015-May-28 14:34N 29°56' E 122°02'1212.2
2015-May-28 13:33N 29°49' E 122°14'1110.5
2015-May-28 12:33N 29°44' E 122°24'8 1.0
2015-May-28 04:14N 29°46' E 122°33'0 0.1
2015-May-28 03:11N 29°47' E 122°33'2 3.2
2015-May-28 02:33N 29°46' E 122°36'7 7.4
2015-May-28 01:33N 29°46' E 122°44'7 6.6
2015-May-28 00:33N 29°46' E 122°52'75 4.3
2015-May-27 07:14N 31°01' E 122°49'5 7.5
2015-May-27 06:33N 31°04' E 122°44'2711.8
2015-May-27 04:16N 31°09' E 122°13'2514.5
2015-May-27 02:33N 31°18' E 121°46'8 2.6
2015-May-26 23:31N 31°22' E 121°38'0 0.0
2015-May-26 22:31N 31°22' E 121°38'0 0.0
2015-May-26 21:31N 31°22' E 121°38'0 0.1
2015-May-26 18:25N 31°22' E 121°38'0 0.1
2015-May-26 17:22N 31°22' E 121°38'0 0.1
2015-May-26 13:25N 31°22' E 121°38'0 0.1
2015-May-26 12:13N 31°22' E 121°38'0 0.0
2015-May-26 11:31N 31°22' E 121°38'0 0.1
2015-May-26 10:29N 31°22' E 121°38'2 2.6
2015-May-26 09:33N 31°22' E 121°35'0 0.1
2015-May-26 08:33N 31°22' E 121°35'0 0.0
2015-May-26 07:27N 31°22' E 121°35'0 0.0
2015-May-26 06:33N 31°22' E 121°35'0 0.0
2015-May-26 05:33N 31°22' E 121°35'0 0.0
2015-May-26 04:33N 31°22' E 121°35'0 0.0
2015-May-26 03:33N 31°22' E 121°35'0 0.0
2015-May-26 02:33N 31°22' E 121°35'0 0.0
2015-May-26 01:33N 31°22' E 121°35'0 0.0
2015-May-26 00:33N 31°22' E 121°35'0 0.0
2015-May-25 23:33N 31°22' E 121°35'0 0.0
2015-May-25 22:33N 31°22' E 121°35'2 1.9
2015-May-25 21:33N 31°22' E 121°37'10 9.8
2015-May-25 20:33N 31°18' E 121°48'1010.1
2015-May-25 19:33N 31°15' E 121°59'10 9.9
2015-May-25 18:33N 31°11' E 122°10'1010.3
2015-May-25 17:33N 31°06' E 122°20'9 8.9
2015-May-25 16:33N 31°07' E 122°30'8 8.3
2015-May-25 15:33N 31°07' E 122°40'9 9.2
2015-May-25 14:33N 31°10' E 122°50'10 9.5
2015-May-25 13:33N 31°14' E 123°00'8 8.6
2015-May-25 12:33N 31°21' E 123°06'1010.1
2015-May-25 11:33N 31°31' E 123°07'1010.0
2015-May-25 10:33N 31°41' E 123°07'1111.1
2015-May-25 09:33N 31°52' E 123°08'2211.1
2015-May-25 07:33N 32°14' E 123°11'22 9.8
2015-May-25 05:20N 32°36' E 123°09'1110.0
2015-May-25 04:15N 32°46' E 123°11'6710.0
2015-May-24 21:30N 33°48' E 122°38'18 8.3
2015-May-24 19:20N 34°03' E 122°26'160 7.6
2015-May-23 22:11N 36°00' E 120°13'0 0.0
2015-May-23 15:23N 36°00' E 120°13'33 1.5
2015-May-22 16:28N 35°50' E 120°52'0 0.0
2015-May-22 12:10N 35°50' E 120°52'0 0.0
2015-May-22 06:19N 35°50' E 120°52'0 0.1
2015-May-22 05:31N 35°50' E 120°52'  
2015-May-19 18:27N 35°02' E 122°33'14016.8
2015-May-19 10:08N 33°59' E 125°05'  
Track history (hours):
 
Tides and Currents Weather Stations Pressure Air Temp Water Temp Dewpoint Dewpoint Depression Visibility Wind Speed Wind Dir Waves Ship Positions

APL Indonesia

Last reported at 2015-May-29 03:08 UTC. Time now 2015-May-29 10:23 UTC.
Position N 29°37' E 122°32'.

Length 261 m; draft 11.4 m.

Type: Ship (hazmat cat D). MMSI: 305386000.

Date/timePositionNaut miles runAvg speedWind from/ knotsBaromVisibWave heightAir tempDewpointWater temp
2015-May-29 03:08N 29°37' E 122°32'813.9
2015-May-29 02:34N 29°42' E 122°25'1110.7
2015-May-29 01:33N 29°48' E 122°14'1212.2
2015-May-29 00:33N 29°55' E 122°03'1111.3
2015-May-28 23:33N 29°57' E 121°50'0 0.3
2015-May-28 22:05N 29°57' E 121°50'0 0.0
2015-May-28 21:32N 29°57' E 121°50'0 0.0
2015-May-28 20:29N 29°57' E 121°50'0 0.0
2015-May-28 19:32N 29°57' E 121°50'0 0.0
2015-May-28 18:17N 29°57' E 121°50'0 0.0
2015-May-28 17:23N 29°57' E 121°50'0 0.0
2015-May-28 16:29N 29°57' E 121°50'1 1.6
2015-May-28 15:33N 29°57' E 121°52'9 8.9
2015-May-28 14:34N 29°56' E 122°02'1212.2
2015-May-28 13:33N 29°49' E 122°14'1110.5
2015-May-28 12:33N 29°44' E 122°24'8 1.0
2015-May-28 04:14N 29°46' E 122°33'0 0.1
2015-May-28 03:11N 29°47' E 122°33'2 3.2
2015-May-28 02:33N 29°46' E 122°36'7 7.4
2015-May-28 01:33N 29°46' E 122°44'7 6.6
2015-May-28 00:33N 29°46' E 122°52'75 4.3
2015-May-27 07:14N 31°01' E 122°49'5 7.5
2015-May-27 06:33N 31°04' E 122°44'2711.8
2015-May-27 04:16N 31°09' E 122°13'2514.5
2015-May-27 02:33N 31°18' E 121°46'8 2.6
2015-May-26 23:31N 31°22' E 121°38'0 0.0
2015-May-26 22:31N 31°22' E 121°38'0 0.0
2015-May-26 21:31N 31°22' E 121°38'0 0.1
2015-May-26 18:25N 31°22' E 121°38'0 0.1
2015-May-26 17:22N 31°22' E 121°38'0 0.1
2015-May-26 13:25N 31°22' E 121°38'0 0.1
2015-May-26 12:13N 31°22' E 121°38'0 0.0
2015-May-26 11:31N 31°22' E 121°38'0 0.1
2015-May-26 10:29N 31°22' E 121°38'2 2.6
2015-May-26 09:33N 31°22' E 121°35'0 0.1
2015-May-26 08:33N 31°22' E 121°35'0 0.0
2015-May-26 07:27N 31°22' E 121°35'0 0.0
2015-May-26 06:33N 31°22' E 121°35'0 0.0
2015-May-26 05:33N 31°22' E 121°35'0 0.0
2015-May-26 04:33N 31°22' E 121°35'0 0.0
2015-May-26 03:33N 31°22' E 121°35'0 0.0
2015-May-26 02:33N 31°22' E 121°35'0 0.0
2015-May-26 01:33N 31°22' E 121°35'0 0.0
2015-May-26 00:33N 31°22' E 121°35'0 0.0
2015-May-25 23:33N 31°22' E 121°35'0 0.0
2015-May-25 22:33N 31°22' E 121°35'2 1.9
2015-May-25 21:33N 31°22' E 121°37'10 9.8
2015-May-25 20:33N 31°18' E 121°48'1010.1
2015-May-25 19:33N 31°15' E 121°59'10 9.9
2015-May-25 18:33N 31°11' E 122°10'1010.3
2015-May-25 17:33N 31°06' E 122°20'9 8.9
2015-May-25 16:33N 31°07' E 122°30'8 8.3
2015-May-25 15:33N 31°07' E 122°40'9 9.2
2015-May-25 14:33N 31°10' E 122°50'10 9.5
2015-May-25 13:33N 31°14' E 123°00'8 8.6
2015-May-25 12:33N 31°21' E 123°06'1010.1
2015-May-25 11:33N 31°31' E 123°07'1010.0
2015-May-25 10:33N 31°41' E 123°07'1111.1
2015-May-25 09:33N 31°52' E 123°08'2211.1
2015-May-25 07:33N 32°14' E 123°11'22 9.8
2015-May-25 05:20N 32°36' E 123°09'1110.0
2015-May-25 04:15N 32°46' E 123°11'6710.0
2015-May-24 21:30N 33°48' E 122°38'18 8.3
2015-May-24 19:20N 34°03' E 122°26'160 7.6
2015-May-23 22:11N 36°00' E 120°13'0 0.0
2015-May-23 15:23N 36°00' E 120°13'33 1.5
2015-May-22 16:28N 35°50' E 120°52'0 0.0
2015-May-22 12:10N 35°50' E 120°52'0 0.0
2015-May-22 06:19N 35°50' E 120°52'0 0.1
2015-May-22 05:31N 35°50' E 120°52'  
2015-May-19 18:27N 35°02' E 122°33'14016.8
2015-May-19 10:08N 33°59' E 125°05'  

Dump ship's entire track history